Time;durP1;ratioP1;P1;durP2;ratioP2;P2;SDS_P1;SDS_P2;PMS_P1;PMS_P2;Temp;Humidity;BMP_temperature;BMP_pressure;BME280_temperature;BME280_humidity;BME280_pressure;Samples;Min_cycle;Max_cycle;Signal;HPM_P1;HPM_P2
2023/03/02 00:01:37;;;;;;;;;;;3.20;99.90;;;;;;7331923;19;109869;-85
2023/03/02 00:04:06;;;;;;;;;;;3.20;99.90;;;;;;7336182;19;112745;-85
2023/03/02 00:06:35;;;;;;;;;;;3.10;99.90;;;;;;7336112;19;109212;-85
2023/03/02 00:09:03;;;;;;;;;;;3.20;99.90;;;;;;7334604;19;108692;-85
2023/03/02 00:11:31;;;;;;;;;;;3.20;99.90;;;;;;7331135;19;109624;-85
2023/03/02 00:13:58;;;;;;;;;;;3.20;99.90;;;;;;7335987;19;108863;-85
2023/03/02 00:16:25;;;;;;;;;;;3.20;99.90;;;;;;7335695;19;110950;-86
2023/03/02 00:18:52;;;;;;;;;;;3.20;99.90;;;;;;7337714;19;111306;-86
2023/03/02 00:21:19;;;;;;;;;;;3.10;99.90;;;;;;7337814;19;108453;-85
2023/03/02 00:23:46;;;;;;;;;;;3.10;99.90;;;;;;7334122;19;112741;-85
2023/03/02 00:26:14;;;;;;;;;;;3.10;99.90;;;;;;7336465;19;108862;-86
2023/03/02 00:28:41;;;;;;;;;;;3.10;99.90;;;;;;7337770;19;109367;-86
2023/03/02 00:31:08;;;;;;;;;;;3.00;99.90;;;;;;7340307;19;111532;-86
2023/03/02 00:33:35;;;;;;;;;;;3.00;99.90;;;;;;7337647;19;108778;-87
2023/03/02 00:36:03;;;;;;;;;;;2.90;99.90;;;;;;7340860;19;109394;-86
2023/03/02 00:38:30;;;;;;;;;;;2.90;99.90;;;;;;7339197;19;111514;-86
2023/03/02 00:40:58;;;;;;;;;;;2.90;99.90;;;;;;7342164;19;108536;-85
2023/03/02 00:43:26;;;;;;;;;;;2.90;99.90;;;;;;7345717;19;109263;-86
2023/03/02 00:45:54;;;;;;;;;;;2.80;99.90;;;;;;7341276;19;108577;-86
2023/03/02 00:48:21;;;;;;;;;;;2.80;99.90;;;;;;7338591;19;109468;-85
2023/03/02 00:50:48;;;;;;;;;;;2.70;99.90;;;;;;7340573;19;110253;-85
2023/03/02 00:53:16;;;;;;;;;;;2.70;99.90;;;;;;7339056;19;109115;-85
2023/03/02 00:55:51;;;;;;;;;;;2.70;99.90;;;;;;7342802;19;109195;-85
2023/03/02 00:58:20;;;;;;;;;;;2.70;99.90;;;;;;7338945;19;112759;-86
2023/03/02 01:00:47;;;;;;;;;;;2.70;99.90;;;;;;7339968;19;109223;-85
2023/03/02 01:03:14;;;;;;;;;;;2.70;99.90;;;;;;7338687;19;109075;-85
2023/03/02 01:05:41;;;;;;;;;;;2.70;99.90;;;;;;7346500;19;110529;-86
2023/03/02 01:08:08;;;;;;;;;;;2.70;99.90;;;;;;7341339;19;109581;-86
2023/03/02 01:10:36;;;;;;;;;;;2.60;99.90;;;;;;7337530;19;109196;-85
2023/03/02 01:13:04;;;;;;;;;;;2.50;99.90;;;;;;7340236;19;108749;-86
2023/03/02 01:15:32;;;;;;;;;;;2.50;99.90;;;;;;7340961;19;108943;-86
2023/03/02 01:17:59;;;;;;;;;;;2.50;99.90;;;;;;7340345;19;110122;-86
2023/03/02 01:20:27;;;;;;;;;;;2.40;99.90;;;;;;7342469;19;110201;-86
2023/03/02 01:22:54;;;;;;;;;;;2.40;99.90;;;;;;7340263;19;109500;-86
2023/03/02 01:25:21;;;;;;;;;;;2.40;99.90;;;;;;7342276;19;109939;-86
2023/03/02 01:27:48;;;;;;;;;;;2.40;99.90;;;;;;7341942;19;111280;-86
2023/03/02 01:30:15;;;;;;;;;;;2.40;99.90;;;;;;7340028;19;113269;-86
2023/03/02 01:32:43;;;;;;;;;;;2.40;99.90;;;;;;7336800;19;109285;-85
2023/03/02 01:35:09;;;;;;;;;;;2.40;99.90;;;;;;7336062;19;112596;-85
2023/03/02 01:37:37;;;;;;;;;;;2.30;99.90;;;;;;7339342;19;110290;-85
2023/03/02 01:40:05;;;;;;;;;;;2.30;99.90;;;;;;7335952;19;111366;-86
2023/03/02 01:42:44;;;;;;;;;;;2.20;99.90;;;;;;7339435;19;111072;-85
2023/03/02 01:45:29;;;;;;;;;;;2.20;99.90;;;;;;7338555;19;111350;-85
2023/03/02 01:47:56;;;;;;;;;;;2.20;99.90;;;;;;7342224;19;109973;-85
2023/03/02 01:50:25;;;;;;;;;;;2.20;99.90;;;;;;7337116;19;109942;-85
2023/03/02 01:52:53;;;;;;;;;;;2.20;99.90;;;;;;7339057;19;109037;-84
2023/03/02 01:55:23;;;;;;;;;;;2.30;99.90;;;;;;7339027;19;108690;-85
2023/03/02 01:57:52;;;;;;;;;;;2.20;99.90;;;;;;7340416;19;110659;-84
2023/03/02 02:00:21;;;;;;;;;;;2.20;99.90;;;;;;7340446;19;108539;-85
2023/03/02 02:02:48;;;;;;;;;;;2.20;99.90;;;;;;7335748;19;109612;-85
2023/03/02 02:05:18;;;;;;;;;;;2.10;99.90;;;;;;7339902;19;111123;-85
2023/03/02 02:07:45;;;;;;;;;;;2.10;99.90;;;;;;7337314;19;112063;-85
2023/03/02 02:10:13;;;;;;;;;;;2.10;99.90;;;;;;7344565;19;109864;-85
2023/03/02 02:12:40;;;;;;;;;;;2.10;99.90;;;;;;7337557;19;110017;-85
2023/03/02 02:15:08;;;;;;;;;;;2.10;99.90;;;;;;7337265;19;109792;-85
2023/03/02 02:17:35;;;;;;;;;;;2.00;99.90;;;;;;7338815;19;110430;-85
2023/03/02 02:20:11;;;;;;;;;;;2.00;99.90;;;;;;7340705;19;108627;-86
2023/03/02 02:22:38;;;;;;;;;;;1.90;99.90;;;;;;7338658;19;111391;-85
2023/03/02 02:25:10;;;;;;;;;;;2.00;99.90;;;;;;7337216;19;111048;-85
2023/03/02 02:27:37;;;;;;;;;;;2.00;99.90;;;;;;7338357;19;108895;-86
2023/03/02 02:30:05;;;;;;;;;;;1.90;99.90;;;;;;7338302;19;109754;-86
2023/03/02 02:32:35;;;;;;;;;;;1.90;99.90;;;;;;7344319;19;110270;-86
2023/03/02 02:35:14;;;;;;;;;;;1.90;99.90;;;;;;7337494;19;109317;-85
2023/03/02 02:37:43;;;;;;;;;;;1.90;99.90;;;;;;7340177;19;110489;-85
2023/03/02 02:40:37;;;;;;;;;;;1.80;99.90;;;;;;7336567;19;108425;-85
2023/03/02 02:43:05;;;;;;;;;;;1.80;99.90;;;;;;7339318;19;109503;-86
2023/03/02 02:45:32;;;;;;;;;;;1.80;99.90;;;;;;7334146;19;113153;-86
2023/03/02 02:47:59;;;;;;;;;;;1.80;99.90;;;;;;7338834;19;109646;-85
2023/03/02 02:50:30;;;;;;;;;;;1.80;99.90;;;;;;7333364;19;111928;-85
2023/03/02 02:53:18;;;;;;;;;;;1.70;99.90;;;;;;7344082;19;110433;-86
2023/03/02 02:55:46;;;;;;;;;;;1.70;99.90;;;;;;7347679;19;108746;-86
2023/03/02 02:58:24;;;;;;;;;;;1.60;99.90;;;;;;7345324;19;111978;-86
2023/03/02 03:00:53;;;;;;;;;;;1.60;99.90;;;;;;7346262;19;108656;-86
2023/03/02 03:03:29;;;;;;;;;;;1.60;99.90;;;;;;7344980;19;109105;-86
2023/03/02 03:05:57;;;;;;;;;;;1.60;99.90;;;;;;7340188;19;110646;-86
2023/03/02 03:08:43;;;;;;;;;;;1.60;99.90;;;;;;7343924;19;113934;-85
2023/03/02 03:11:14;;;;;;;;;;;1.50;99.90;;;;;;7342948;19;109483;-86
2023/03/02 03:13:42;;;;;;;;;;;1.50;99.90;;;;;;7342104;19;109990;-85
2023/03/02 03:16:11;;;;;;;;;;;1.50;99.90;;;;;;7344773;19;112545;-86
2023/03/02 03:18:41;;;;;;;;;;;1.50;99.90;;;;;;7349591;19;111870;-86
2023/03/02 03:21:08;;;;;;;;;;;1.50;99.90;;;;;;7345603;19;108472;-86
2023/03/02 03:23:37;;;;;;;;;;;1.50;99.90;;;;;;7340673;19;110955;-85
2023/03/02 03:26:04;;;;;;;;;;;1.50;99.90;;;;;;7343191;19;110346;-86
2023/03/02 03:28:32;;;;;;;;;;;1.50;99.90;;;;;;7342512;19;108650;-86
2023/03/02 03:31:02;;;;;;;;;;;1.50;99.90;;;;;;7343803;19;109397;-86
2023/03/02 03:33:29;;;;;;;;;;;1.50;99.90;;;;;;7341288;19;110413;-86
2023/03/02 03:35:56;;;;;;;;;;;1.50;99.90;;;;;;7344958;19;108389;-86
2023/03/02 03:38:23;;;;;;;;;;;1.50;99.90;;;;;;7341163;19;108706;-86
2023/03/02 03:40:50;;;;;;;;;;;1.50;99.90;;;;;;7348651;19;109784;-86
2023/03/02 03:43:17;;;;;;;;;;;1.50;99.90;;;;;;7342716;19;108934;-86
2023/03/02 03:45:44;;;;;;;;;;;1.40;99.90;;;;;;7339458;19;111319;-86
2023/03/02 03:48:11;;;;;;;;;;;1.40;99.90;;;;;;7340474;19;108448;-85
2023/03/02 03:50:38;;;;;;;;;;;1.40;99.90;;;;;;7342250;19;109600;-86
2023/03/02 03:53:05;;;;;;;;;;;1.40;99.90;;;;;;7338967;19;112793;-86
2023/03/02 03:55:32;;;;;;;;;;;1.40;99.90;;;;;;7340437;19;109062;-86
2023/03/02 03:58:00;;;;;;;;;;;1.40;99.90;;;;;;7345655;19;111393;-86
2023/03/02 04:00:27;;;;;;;;;;;1.40;99.90;;;;;;7345050;19;109139;-86
2023/03/02 04:02:54;;;;;;;;;;;1.30;99.90;;;;;;7342708;19;108637;-86
2023/03/02 04:05:22;;;;;;;;;;;1.30;99.90;;;;;;7349309;19;111481;-85
2023/03/02 04:07:49;;;;;;;;;;;1.30;99.90;;;;;;7349167;19;108481;-86
2023/03/02 04:10:16;;;;;;;;;;;1.30;99.90;;;;;;7351416;19;109619;-86
2023/03/02 04:12:43;;;;;;;;;;;1.20;99.90;;;;;;7347878;19;111639;-86
2023/03/02 04:15:12;;;;;;;;;;;1.20;99.90;;;;;;7351836;19;108414;-86
2023/03/02 04:17:39;;;;;;;;;;;1.20;99.90;;;;;;7349144;19;112357;-86
2023/03/02 04:20:08;;;;;;;;;;;1.20;99.90;;;;;;7350512;19;110547;-86
2023/03/02 04:22:35;;;;;;;;;;;1.20;99.90;;;;;;7353985;19;108471;-86
2023/03/02 04:25:03;;;;;;;;;;;1.20;99.90;;;;;;7348504;19;109046;-86
2023/03/02 04:27:30;;;;;;;;;;;1.10;99.90;;;;;;7349443;19;108713;-86
2023/03/02 04:29:57;;;;;;;;;;;1.10;99.90;;;;;;7351813;19;111698;-86
2023/03/02 04:32:24;;;;;;;;;;;1.10;99.90;;;;;;7349619;19;110363;-85
2023/03/02 04:34:51;;;;;;;;;;;1.10;99.90;;;;;;7351018;19;108810;-86
2023/03/02 04:37:18;;;;;;;;;;;1.10;99.90;;;;;;7350638;19;110723;-86
2023/03/02 04:39:49;;;;;;;;;;;1.10;99.90;;;;;;7349317;19;111590;-86
2023/03/02 04:42:17;;;;;;;;;;;1.10;99.90;;;;;;7349237;19;108746;-86
2023/03/02 04:44:44;;;;;;;;;;;1.00;99.90;;;;;;7352691;19;108868;-85
2023/03/02 04:47:12;;;;;;;;;;;1.00;99.90;;;;;;7352544;19;108979;-86
2023/03/02 04:49:39;;;;;;;;;;;1.00;99.90;;;;;;7349273;19;108903;-86
2023/03/02 04:52:06;;;;;;;;;;;0.90;99.90;;;;;;7348577;19;111394;-86
2023/03/02 04:54:33;;;;;;;;;;;0.90;99.90;;;;;;7348074;19;108466;-86
2023/03/02 04:57:00;;;;;;;;;;;1.00;99.90;;;;;;7346521;19;110549;-86
2023/03/02 04:59:30;;;;;;;;;;;1.00;99.90;;;;;;7345513;19;110452;-86
2023/03/02 05:01:58;;;;;;;;;;;1.00;99.90;;;;;;7349187;19;108997;-85
2023/03/02 05:04:25;;;;;;;;;;;1.00;99.90;;;;;;7346493;19;109261;-86
2023/03/02 05:06:52;;;;;;;;;;;0.90;99.90;;;;;;7356575;19;110492;-86
2023/03/02 05:09:25;;;;;;;;;;;0.90;99.90;;;;;;7346672;19;109437;-86
2023/03/02 05:11:57;;;;;;;;;;;0.90;99.90;;;;;;7351957;19;108977;-86
2023/03/02 05:14:24;;;;;;;;;;;0.90;99.90;;;;;;7347329;19;108503;-86
2023/03/02 05:16:51;;;;;;;;;;;0.90;99.90;;;;;;7350310;19;108256;-86
2023/03/02 05:19:18;;;;;;;;;;;0.90;99.90;;;;;;7349658;19;110691;-85
2023/03/02 05:21:45;;;;;;;;;;;0.90;99.90;;;;;;7349967;19;108814;-85
2023/03/02 05:24:13;;;;;;;;;;;0.90;99.90;;;;;;7346718;19;108963;-85
2023/03/02 05:26:40;;;;;;;;;;;0.90;99.90;;;;;;7350983;19;112416;-86
2023/03/02 05:29:07;;;;;;;;;;;0.90;99.90;;;;;;7349745;19;110487;-86
2023/03/02 05:31:39;;;;;;;;;;;0.90;99.90;;;;;;7346976;19;109085;-85
2023/03/02 05:34:07;;;;;;;;;;;0.90;99.90;;;;;;7349057;19;108356;-85
2023/03/02 05:36:34;;;;;;;;;;;0.90;99.90;;;;;;7347021;19;109261;-85
2023/03/02 05:39:02;;;;;;;;;;;0.90;99.90;;;;;;7349698;19;113326;-85
2023/03/02 05:41:29;;;;;;;;;;;0.90;99.90;;;;;;7347811;19;110310;-86
2023/03/02 05:43:57;;;;;;;;;;;0.90;99.90;;;;;;7348786;19;109580;-86
2023/03/02 05:46:24;;;;;;;;;;;0.80;99.90;;;;;;7353269;19;111463;-85
2023/03/02 05:48:51;;;;;;;;;;;0.80;99.90;;;;;;7351404;19;108778;-86
2023/03/02 05:51:18;;;;;;;;;;;0.90;99.90;;;;;;7357955;19;108631;-86
2023/03/02 05:53:45;;;;;;;;;;;0.90;99.90;;;;;;7351223;19;109445;-86
2023/03/02 05:56:12;;;;;;;;;;;0.80;99.90;;;;;;7350652;19;111054;-87
2023/03/02 05:58:40;;;;;;;;;;;0.80;99.90;;;;;;7351717;19;108758;-86
2023/03/02 06:01:09;;;;;;;;;;;0.80;99.90;;;;;;7349454;19;109607;-86
2023/03/02 06:03:35;;;;;;;;;;;0.90;99.90;;;;;;7346835;19;108913;-86
2023/03/02 06:06:03;;;;;;;;;;;0.90;99.90;;;;;;7343951;19;109072;-86
2023/03/02 06:08:30;;;;;;;;;;;0.90;99.90;;;;;;7345098;19;108677;-86
2023/03/02 06:10:57;;;;;;;;;;;0.90;99.90;;;;;;7350480;19;110545;-86
2023/03/02 06:13:24;;;;;;;;;;;0.90;99.90;;;;;;7345050;19;109575;-86
2023/03/02 06:15:51;;;;;;;;;;;0.90;99.90;;;;;;7345128;19;108358;-86
2023/03/02 06:18:18;;;;;;;;;;;0.90;99.90;;;;;;7348455;19;111641;-85
2023/03/02 06:20:45;;;;;;;;;;;0.90;99.90;;;;;;7345510;19;109618;-86
2023/03/02 06:23:12;;;;;;;;;;;0.90;99.90;;;;;;7346355;19;109806;-86
2023/03/02 06:25:42;;;;;;;;;;;0.90;99.90;;;;;;7346596;19;110449;-86
2023/03/02 06:28:09;;;;;;;;;;;0.90;99.90;;;;;;7347205;19;108422;-87
2023/03/02 06:30:36;;;;;;;;;;;0.90;99.90;;;;;;7344102;19;109263;-86
2023/03/02 06:33:03;;;;;;;;;;;0.90;99.90;;;;;;7349382;19;109563;-86
2023/03/02 06:35:30;;;;;;;;;;;0.90;99.90;;;;;;7347356;19;111255;-87
2023/03/02 06:37:57;;;;;;;;;;;0.90;99.90;;;;;;7344417;19;113174;-85
2023/03/02 06:40:24;;;;;;;;;;;0.90;99.90;;;;;;7343176;19;110377;-86
2023/03/02 06:42:51;;;;;;;;;;;0.90;99.90;;;;;;7345617;19;111139;-86
2023/03/02 06:45:19;;;;;;;;;;;0.90;99.90;;;;;;7347152;19;110289;-86
2023/03/02 06:47:46;;;;;;;;;;;0.90;99.90;;;;;;7343992;19;108511;-86
2023/03/02 06:50:13;;;;;;;;;;;1.00;99.90;;;;;;7343872;19;110187;-86
2023/03/02 06:52:40;;;;;;;;;;;0.90;99.90;;;;;;7340135;19;110685;-87
2023/03/02 06:55:07;;;;;;;;;;;0.90;99.90;;;;;;7344561;19;108998;-87
2023/03/02 06:57:34;;;;;;;;;;;0.90;99.90;;;;;;7340179;19;110360;-88
2023/03/02 07:00:08;;;;;;;;;;;0.90;99.90;;;;;;7337615;19;109038;-88
2023/03/02 07:02:36;;;;;;;;;;;1.00;99.90;;;;;;7338639;19;111818;-87
2023/03/02 07:05:03;;;;;;;;;;;1.00;99.90;;;;;;7336398;19;110196;-89
2023/03/02 07:07:30;;;;;;;;;;;1.10;99.90;;;;;;7339170;19;108837;-88
2023/03/02 07:09:57;;;;;;;;;;;1.10;99.90;;;;;;7339504;19;110405;-88
2023/03/02 07:12:24;;;;;;;;;;;1.20;99.90;;;;;;7339745;19;109591;-87
2023/03/02 07:14:51;;;;;;;;;;;1.20;99.90;;;;;;7339927;19;108501;-87
2023/03/02 07:17:18;;;;;;;;;;;1.30;99.90;;;;;;7345782;19;109308;-88
2023/03/02 07:19:45;;;;;;;;;;;1.30;99.90;;;;;;7337082;19;108462;-88
2023/03/02 07:22:12;;;;;;;;;;;1.30;99.90;;;;;;7339381;19;109574;-87
2023/03/02 07:24:39;;;;;;;;;;;1.40;99.90;;;;;;7341371;19;109734;-87
2023/03/02 07:27:09;;;;;;;;;;;1.50;99.90;;;;;;7343153;19;110585;-87
2023/03/02 07:29:36;;;;;;;;;;;1.50;99.90;;;;;;7342325;19;109114;-89
2023/03/02 07:32:03;;;;;;;;;;;1.50;99.90;;;;;;7338479;19;110484;-86
2023/03/02 07:34:30;;;;;;;;;;;1.60;99.90;;;;;;7337770;19;108769;-86
2023/03/02 07:36:57;;;;;;;;;;;1.60;99.90;;;;;;7339557;19;109074;-88
2023/03/02 07:39:24;;;;;;;;;;;1.70;99.90;;;;;;7341327;19;110513;-87
2023/03/02 07:41:51;;;;;;;;;;;1.70;99.90;;;;;;7337329;19;109807;-87
2023/03/02 07:44:18;;;;;;;;;;;1.80;99.90;;;;;;7336311;19;110725;-87
2023/03/02 07:46:45;;;;;;;;;;;1.80;99.90;;;;;;7335454;19;108278;-87
2023/03/02 07:49:12;;;;;;;;;;;1.80;99.90;;;;;;7341117;19;109255;-87
2023/03/02 07:51:39;;;;;;;;;;;1.90;99.90;;;;;;7334097;19;110026;-87
2023/03/02 07:54:06;;;;;;;;;;;1.90;99.90;;;;;;7339485;19;108562;-86
2023/03/02 07:56:33;;;;;;;;;;;2.00;99.90;;;;;;7336999;19;111170;-86
2023/03/02 07:59:00;;;;;;;;;;;2.00;99.90;;;;;;7339593;19;113585;-86
2023/03/02 08:01:26;;;;;;;;;;;2.00;99.90;;;;;;7342041;19;109162;-87
2023/03/02 08:03:53;;;;;;;;;;;2.10;99.90;;;;;;7336202;19;112676;-86
2023/03/02 08:06:21;;;;;;;;;;;2.20;99.90;;;;;;7336834;19;108384;-86
2023/03/02 08:08:48;;;;;;;;;;;2.20;99.90;;;;;;7334941;19;112379;-86
2023/03/02 08:11:16;;;;;;;;;;;2.30;99.90;;;;;;7337889;19;112774;-86
2023/03/02 08:13:43;;;;;;;;;;;2.40;99.90;;;;;;7334991;19;108877;-87
2023/03/02 08:16:11;;;;;;;;;;;2.50;99.90;;;;;;7336887;19;109847;-86
2023/03/02 08:18:38;;;;;;;;;;;2.50;99.90;;;;;;7339760;19;110520;-90
2023/03/02 08:21:13;;;;;;;;;;;2.60;99.90;;;;;;7341866;19;108873;-86
2023/03/02 08:23:40;;;;;;;;;;;2.60;99.90;;;;;;7332452;19;110715;-86
2023/03/02 08:26:07;;;;;;;;;;;2.70;99.90;;;;;;7334904;19;108391;-86
2023/03/02 08:28:39;;;;;;;;;;;2.70;99.90;;;;;;7337391;19;109303;-86
2023/03/02 08:31:06;;;;;;;;;;;2.80;99.90;;;;;;7337519;19;114207;-87
2023/03/02 08:33:33;;;;;;;;;;;2.90;99.90;;;;;;7335626;19;108835;-86
2023/03/02 08:36:02;;;;;;;;;;;2.90;99.90;;;;;;7339319;19;109102;-87
2023/03/02 08:38:29;;;;;;;;;;;3.00;99.90;;;;;;7335219;19;111392;-87
2023/03/02 08:40:56;;;;;;;;;;;3.00;99.90;;;;;;7332220;19;109967;-85
2023/03/02 08:43:24;;;;;;;;;;;3.10;99.90;;;;;;7340529;19;108652;-86
2023/03/02 08:45:52;;;;;;;;;;;3.20;99.90;;;;;;7332886;19;109198;-86
2023/03/02 08:48:20;;;;;;;;;;;3.40;99.90;;;;;;7332350;19;109437;-86
2023/03/02 08:50:57;;;;;;;;;;;3.40;99.90;;;;;;7338273;19;109525;-86
2023/03/02 08:53:25;;;;;;;;;;;3.50;99.90;;;;;;7338829;19;109303;-86
2023/03/02 08:55:52;;;;;;;;;;;3.60;99.90;;;;;;7342956;19;108670;-86
2023/03/02 08:58:19;;;;;;;;;;;3.60;99.90;;;;;;7339864;19;109564;-87
2023/03/02 09:00:46;;;;;;;;;;;3.70;99.90;;;;;;7341391;19;109287;-87
2023/03/02 09:03:13;;;;;;;;;;;3.70;99.90;;;;;;7340249;19;109087;-87
2023/03/02 09:05:40;;;;;;;;;;;3.80;99.90;;;;;;7344226;19;109677;-86
2023/03/02 09:08:07;;;;;;;;;;;3.90;99.90;;;;;;7341894;19;109599;-87
2023/03/02 09:10:34;;;;;;;;;;;4.00;99.90;;;;;;7339729;19;110109;-88
2023/03/02 09:13:01;;;;;;;;;;;4.00;99.90;;;;;;7343415;19;108663;-87
2023/03/02 09:15:28;;;;;;;;;;;4.10;99.90;;;;;;7338979;19;108559;-88
2023/03/02 09:17:56;;;;;;;;;;;4.20;99.90;;;;;;7339326;19;110585;-87
2023/03/02 09:20:23;;;;;;;;;;;4.20;99.90;;;;;;7339865;19;108608;-88
2023/03/02 09:22:50;;;;;;;;;;;4.30;99.90;;;;;;7340955;19;109465;-88
2023/03/02 09:25:17;;;;;;;;;;;4.30;99.90;;;;;;7339457;19;114453;-87
2023/03/02 09:27:45;;;;;;;;;;;4.30;99.90;;;;;;7344556;19;108739;-87
2023/03/02 09:30:13;;;;;;;;;;;4.50;99.90;;;;;;7340047;19;111056;-88
2023/03/02 09:32:40;;;;;;;;;;;4.60;99.90;;;;;;7338039;19;108549;-86
2023/03/02 09:35:07;;;;;;;;;;;4.70;99.90;;;;;;7338616;19;110544;-86
2023/03/02 09:37:37;;;;;;;;;;;4.70;99.90;;;;;;7341480;19;112724;-88
2023/03/02 09:40:11;;;;;;;;;;;4.80;99.90;;;;;;7341800;19;109102;-88
2023/03/02 09:42:53;;;;;;;;;;;4.90;99.90;;;;;;7339782;19;108619;-88
2023/03/02 09:45:24;;;;;;;;;;;5.00;99.90;;;;;;7340361;19;111795;-87
2023/03/02 09:47:51;;;;;;;;;;;5.00;99.90;;;;;;7340755;19;108658;-88
2023/03/02 09:50:21;;;;;;;;;;;5.10;99.90;;;;;;7342218;19;112049;-88
2023/03/02 09:52:51;;;;;;;;;;;5.20;99.90;;;;;;7341010;19;108520;-87
2023/03/02 09:55:21;;;;;;;;;;;5.20;99.90;;;;;;7338964;19;109221;-88
2023/03/02 09:57:48;;;;;;;;;;;5.30;99.90;;;;;;7338324;19;111799;-88
2023/03/02 10:00:22;;;;;;;;;;;5.40;99.90;;;;;;7342334;19;108818;-88
2023/03/02 10:02:59;;;;;;;;;;;5.50;99.90;;;;;;7340525;19;109342;-88
2023/03/02 10:05:43;;;;;;;;;;;5.50;99.90;;;;;;7339293;19;109166;-88
2023/03/02 10:08:11;;;;;;;;;;;5.40;99.90;;;;;;7342080;19;108551;-88
2023/03/02 10:10:42;;;;;;;;;;;5.50;99.90;;;;;;7350591;19;110762;-88
2023/03/02 10:13:20;;;;;;;;;;;5.60;99.90;;;;;;7342518;19;112410;-88
2023/03/02 10:15:53;;;;;;;;;;;5.70;99.90;;;;;;7341313;19;109129;-87
2023/03/02 10:18:27;;;;;;;;;;;5.80;99.90;;;;;;7341736;19;110253;-87
2023/03/02 10:20:57;;;;;;;;;;;5.90;99.90;;;;;;7343308;19;108345;-88
2023/03/02 10:23:29;;;;;;;;;;;6.00;99.90;;;;;;7341514;19;109421;-88
2023/03/02 10:25:59;;;;;;;;;;;6.00;99.90;;;;;;7340362;19;110228;-88
2023/03/02 10:28:31;;;;;;;;;;;6.10;99.90;;;;;;7341324;19;108979;-88
2023/03/02 10:31:05;;;;;;;;;;;6.20;99.90;;;;;;7342150;19;108376;-88
2023/03/02 10:33:35;;;;;;;;;;;6.30;99.90;;;;;;7347761;19;110374;-88
2023/03/02 10:36:04;;;;;;;;;;;6.40;99.90;;;;;;7340875;19;110540;-88
2023/03/02 10:38:31;;;;;;;;;;;6.40;99.90;;;;;;7339281;19;110111;-88
2023/03/02 10:41:02;;;;;;;;;;;6.40;99.90;;;;;;7341836;19;108507;-87
2023/03/02 10:43:29;;;;;;;;;;;6.40;99.90;;;;;;7339949;19;109929;-89
2023/03/02 10:45:57;;;;;;;;;;;6.30;99.90;;;;;;7340984;19;110200;-88
2023/03/02 10:48:24;;;;;;;;;;;6.30;99.90;;;;;;7338457;19;110001;-87
2023/03/02 10:50:52;;;;;;;;;;;6.50;99.90;;;;;;7340432;19;108979;-86
2023/03/02 10:53:19;;;;;;;;;;;6.60;99.90;;;;;;7339309;19;111649;-87
2023/03/02 10:55:47;;;;;;;;;;;6.70;99.90;;;;;;7345243;19;109020;-88
2023/03/02 10:58:34;;;;;;;;;;;6.70;99.90;;;;;;7342578;19;110734;-87
2023/03/02 11:01:06;;;;;;;;;;;6.80;99.90;;;;;;7341420;19;109899;-88
2023/03/02 11:03:33;;;;;;;;;;;6.80;99.90;;;;;;7338428;19;109524;-87
2023/03/02 11:06:15;;;;;;;;;;;6.90;99.90;;;;;;7339241;19;110732;-89
2023/03/02 11:08:42;;;;;;;;;;;7.00;99.90;;;;;;7339512;19;108644;-88
2023/03/02 11:11:23;;;;;;;;;;;7.10;99.90;;;;;;7337515;19;110405;-88
2023/03/02 11:13:50;;;;;;;;;;;7.20;99.90;;;;;;7339096;19;110360;-87
2023/03/02 11:16:17;;;;;;;;;;;7.40;99.90;;;;;;7336557;19;108983;-87
2023/03/02 11:18:53;;;;;;;;;;;7.50;99.90;;;;;;7343170;19;109728;-88
2023/03/02 11:21:23;;;;;;;;;;;7.50;99.90;;;;;;7337768;19;108289;-87
2023/03/02 11:24:09;;;;;;;;;;;7.50;99.90;;;;;;7337218;19;109553;-87
2023/03/02 11:26:38;;;;;;;;;;;7.50;99.90;;;;;;7334966;19;110400;-87
2023/03/02 11:29:13;;;;;;;;;;;7.60;99.90;;;;;;7336095;19;109387;-87
2023/03/02 11:31:47;;;;;;;;;;;7.90;99.90;;;;;;7337198;19;109397;-87
2023/03/02 11:34:24;;;;;;;;;;;7.90;99.90;;;;;;7337341;19;110089;-88
2023/03/02 11:36:53;;;;;;;;;;;8.00;99.90;;;;;;7337337;19;108425;-87
2023/03/02 11:39:24;;;;;;;;;;;8.00;99.90;;;;;;7338503;19;108581;-87
2023/03/02 11:41:52;;;;;;;;;;;8.00;99.90;;;;;;7340368;19;110810;-88
2023/03/02 11:44:20;;;;;;;;;;;8.10;99.90;;;;;;7339196;19;109748;-87
2023/03/02 11:46:52;;;;;;;;;;;8.20;99.90;;;;;;7335550;19;110263;-86
2023/03/02 11:49:46;;;;;;;;;;;8.30;99.90;;;;;;7337137;19;108857;-86
2023/03/02 11:52:20;;;;;;;;;;;8.30;99.90;;;;;;7336757;19;109672;-87
2023/03/02 11:54:58;;;;;;;;;;;8.40;99.90;;;;;;7334250;19;109475;-87
2023/03/02 11:57:44;;;;;;;;;;;8.50;99.90;;;;;;7332641;19;109232;-87
2023/03/02 12:00:14;;;;;;;;;;;8.70;99.90;;;;;;7333707;19;109918;-87
2023/03/02 12:02:41;;;;;;;;;;;8.90;99.90;;;;;;7335104;19;110625;-88
2023/03/02 12:05:23;;;;;;;;;;;9.10;99.90;;;;;;7337430;19;110231;-90
2023/03/02 12:07:59;;;;;;;;;;;9.30;99.90;;;;;;7336100;19;115107;-87
2023/03/02 12:10:34;;;;;;;;;;;9.30;99.90;;;;;;7334903;19;108684;-88
2023/03/02 12:13:13;;;;;;;;;;;9.40;99.90;;;;;;7339027;19;110268;-88
2023/03/02 12:15:41;;;;;;;;;;;9.50;99.90;;;;;;7332650;19;110490;-88
2023/03/02 12:18:21;;;;;;;;;;;9.60;99.40;;;;;;7334891;19;109098;-87
2023/03/02 12:20:58;;;;;;;;;;;9.70;99.40;;;;;;7335688;19;111150;-87
2023/03/02 12:23:25;;;;;;;;;;;9.60;99.10;;;;;;7333418;19;110506;-87
2023/03/02 12:26:01;;;;;;;;;;;9.60;98.60;;;;;;7344124;19;108311;-87
2023/03/02 12:28:34;;;;;;;;;;;9.70;99.20;;;;;;7340273;19;109729;-87
2023/03/02 12:31:02;;;;;;;;;;;9.80;99.60;;;;;;7342872;19;108774;-86
2023/03/02 12:33:29;;;;;;;;;;;9.90;99.40;;;;;;7342846;19;109225;-86
2023/03/02 12:36:17;;;;;;;;;;;10.00;98.90;;;;;;7341679;19;108760;-86
2023/03/02 12:38:51;;;;;;;;;;;10.20;99.60;;;;;;7343282;19;108752;-86
2023/03/02 12:41:21;;;;;;;;;;;10.30;99.00;;;;;;7343718;19;109785;-86
2023/03/02 12:43:57;;;;;;;;;;;10.50;99.20;;;;;;7342016;19;109570;-87
2023/03/02 12:46:35;;;;;;;;;;;10.70;99.00;;;;;;7343748;19;108264;-88
2023/03/02 12:49:03;;;;;;;;;;;10.80;98.20;;;;;;7353344;19;112002;-86
2023/03/02 12:51:42;;;;;;;;;;;10.90;99.00;;;;;;7345718;19;109985;-87
2023/03/02 12:54:13;;;;;;;;;;;11.10;98.60;;;;;;7347365;19;108638;-87
2023/03/02 12:56:40;;;;;;;;;;;11.20;98.50;;;;;;7343297;19;109920;-87
2023/03/02 12:59:18;;;;;;;;;;;11.40;98.60;;;;;;7345799;19;108526;-86
2023/03/02 13:01:45;;;;;;;;;;;11.50;98.20;;;;;;7344626;19;112493;-86
2023/03/02 13:04:22;;;;;;;;;;;11.40;96.80;;;;;;7342432;19;109803;-88
2023/03/02 13:06:49;;;;;;;;;;;11.40;97.00;;;;;;7343332;19;108532;-87
2023/03/02 13:09:19;;;;;;;;;;;11.40;97.10;;;;;;7340547;19;109123;-88
2023/03/02 13:11:47;;;;;;;;;;;11.50;97.70;;;;;;7349206;19;110052;-89
2023/03/02 13:14:16;;;;;;;;;;;11.70;97.20;;;;;;7346414;19;108815;-89
2023/03/02 13:16:51;;;;;;;;;;;11.60;96.10;;;;;;7352866;19;110439;-89
2023/03/02 13:19:19;;;;;;;;;;;11.70;96.40;;;;;;7352895;19;108871;-89
2023/03/02 13:21:46;;;;;;;;;;;11.80;96.70;;;;;;7351426;19;108799;-88
2023/03/02 13:24:25;;;;;;;;;;;11.80;95.10;;;;;;7345104;19;111755;-88
2023/03/02 13:26:56;;;;;;;;;;;11.70;95.10;;;;;;7346640;19;108653;-88
2023/03/02 13:29:25;;;;;;;;;;;11.80;95.90;;;;;;7345203;19;109852;-89
2023/03/02 13:31:55;;;;;;;;;;;12.00;96.40;;;;;;7345049;19;111907;-88
2023/03/02 13:34:27;;;;;;;;;;;12.10;94.80;;;;;;7351534;19;109322;-88
2023/03/02 13:36:54;;;;;;;;;;;12.00;94.70;;;;;;7343988;19;110359;-89
2023/03/02 13:39:24;;;;;;;;;;;12.10;94.60;;;;;;7340949;19;108559;-90
2023/03/02 13:41:52;;;;;;;;;;;12.30;95.10;;;;;;7343148;19;108797;-89
2023/03/02 13:44:22;;;;;;;;;;;12.50;95.30;;;;;;7343253;19;113700;-89
2023/03/02 13:46:48;;;;;;;;;;;12.60;94.30;;;;;;7340186;19;110349;-87
2023/03/02 13:49:32;;;;;;;;;;;12.70;94.50;;;;;;7343415;19;109404;-88
2023/03/02 13:52:04;;;;;;;;;;;12.60;93.70;;;;;;7340756;19;111016;-88
2023/03/02 13:54:35;;;;;;;;;;;12.70;94.50;;;;;;7340739;19;108928;-89
2023/03/02 13:57:03;;;;;;;;;;;12.80;94.20;;;;;;7344957;19;110371;-88
2023/03/02 13:59:33;;;;;;;;;;;12.80;93.80;;;;;;7342762;19;108898;-89
2023/03/02 14:02:00;;;;;;;;;;;12.80;93.50;;;;;;7340415;19;112853;-88
2023/03/02 14:04:27;;;;;;;;;;;12.80;93.20;;;;;;7340053;19;110183;-88
2023/03/02 14:06:54;;;;;;;;;;;12.80;93.80;;;;;;7339626;19;111417;-88
2023/03/02 14:09:21;;;;;;;;;;;12.80;93.20;;;;;;7337640;19;109515;-87
2023/03/02 14:11:50;;;;;;;;;;;12.70;93.20;;;;;;7339805;19;110481;-86
2023/03/02 14:14:19;;;;;;;;;;;12.70;93.30;;;;;;7340835;19;108300;-87
2023/03/02 14:16:46;;;;;;;;;;;12.70;93.10;;;;;;7337791;19;110557;-87
2023/03/02 14:19:17;;;;;;;;;;;12.70;92.90;;;;;;7342980;19;109420;-87
2023/03/02 14:21:45;;;;;;;;;;;12.80;93.10;;;;;;7342441;19;109313;-87
2023/03/02 14:24:12;;;;;;;;;;;12.80;93.10;;;;;;7339971;19;110966;-88
2023/03/02 14:26:46;;;;;;;;;;;12.80;92.50;;;;;;7342210;19;109016;-88
2023/03/02 14:29:21;;;;;;;;;;;13.00;93.20;;;;;;7340983;19;108304;-88